sensor_id;sensor_type;location;lat;lon;timestamp;P1;durP1;ratioP1;P2;durP2;ratioP2
56481;SDS011;42384;45.186;19.958;2023-09-07T00:01:49;29.70;;;21.33;;
56481;SDS011;42384;45.186;19.958;2023-09-07T00:04:18;13.35;;;7.57;;
56481;SDS011;42384;45.186;19.958;2023-09-07T00:06:44;8.90;;;6.30;;
56481;SDS011;42384;45.186;19.958;2023-09-07T00:09:11;10.73;;;6.30;;
56481;SDS011;42384;45.186;19.958;2023-09-07T00:11:38;9.52;;;5.63;;
56481;SDS011;42384;45.186;19.958;2023-09-07T00:14:04;6.70;;;5.43;;
56481;SDS011;42384;45.186;19.958;2023-09-07T00:16:31;5.97;;;4.60;;
56481;SDS011;42384;45.186;19.958;2023-09-07T00:19:01;5.40;;;4.50;;
56481;SDS011;42384;45.186;19.958;2023-09-07T00:21:28;8.85;;;4.55;;
56481;SDS011;42384;45.186;19.958;2023-09-07T00:23:54;6.82;;;5.25;;
56481;SDS011;42384;45.186;19.958;2023-09-07T00:26:20;8.88;;;5.10;;
56481;SDS011;42384;45.186;19.958;2023-09-07T00:28:47;7.95;;;4.70;;
56481;SDS011;42384;45.186;19.958;2023-09-07T00:31:13;9.10;;;5.07;;
56481;SDS011;42384;45.186;19.958;2023-09-07T00:33:39;8.55;;;5.18;;
56481;SDS011;42384;45.186;19.958;2023-09-07T00:36:06;12.15;;;4.78;;
56481;SDS011;42384;45.186;19.958;2023-09-07T00:38:32;8.57;;;5.45;;
56481;SDS011;42384;45.186;19.958;2023-09-07T00:40:59;7.78;;;5.00;;
56481;SDS011;42384;45.186;19.958;2023-09-07T00:43:25;11.00;;;5.70;;
56481;SDS011;42384;45.186;19.958;2023-09-07T00:45:52;7.05;;;5.28;;
56481;SDS011;42384;45.186;19.958;2023-09-07T00:48:19;6.82;;;4.82;;
56481;SDS011;42384;45.186;19.958;2023-09-07T00:50:46;5.97;;;4.85;;
56481;SDS011;42384;45.186;19.958;2023-09-07T00:53:12;8.77;;;4.63;;
56481;SDS011;42384;45.186;19.958;2023-09-07T00:55:38;10.93;;;6.03;;
56481;SDS011;42384;45.186;19.958;2023-09-07T00:58:05;6.47;;;5.13;;
56481;SDS011;42384;45.186;19.958;2023-09-07T01:00:31;7.80;;;5.75;;
56481;SDS011;42384;45.186;19.958;2023-09-07T01:05:32;8.70;;;6.40;;
56481;SDS011;42384;45.186;19.958;2023-09-07T01:08:09;10.68;;;5.65;;
56481;SDS011;42384;45.186;19.958;2023-09-07T01:10:36;11.48;;;5.60;;
56481;SDS011;42384;45.186;19.958;2023-09-07T01:13:02;7.35;;;5.00;;
56481;SDS011;42384;45.186;19.958;2023-09-07T01:15:28;12.07;;;5.90;;
56481;SDS011;42384;45.186;19.958;2023-09-07T01:17:55;7.93;;;5.35;;
56481;SDS011;42384;45.186;19.958;2023-09-07T01:20:22;9.85;;;5.55;;
56481;SDS011;42384;45.186;19.958;2023-09-07T01:22:49;10.82;;;6.00;;
56481;SDS011;42384;45.186;19.958;2023-09-07T01:25:15;13.63;;;7.32;;
56481;SDS011;42384;45.186;19.958;2023-09-07T01:27:42;11.80;;;6.78;;
56481;SDS011;42384;45.186;19.958;2023-09-07T01:30:09;9.52;;;6.78;;
56481;SDS011;42384;45.186;19.958;2023-09-07T01:32:36;9.30;;;5.65;;
56481;SDS011;42384;45.186;19.958;2023-09-07T01:35:02;6.97;;;6.00;;
56481;SDS011;42384;45.186;19.958;2023-09-07T01:37:30;7.20;;;5.60;;
56481;SDS011;42384;45.186;19.958;2023-09-07T01:39:57;13.05;;;7.38;;
56481;SDS011;42384;45.186;19.958;2023-09-07T01:42:23;12.73;;;7.85;;
56481;SDS011;42384;45.186;19.958;2023-09-07T01:44:49;12.73;;;6.60;;
56481;SDS011;42384;45.186;19.958;2023-09-07T01:47:15;9.88;;;7.13;;
56481;SDS011;42384;45.186;19.958;2023-09-07T01:49:42;10.80;;;6.50;;
56481;SDS011;42384;45.186;19.958;2023-09-07T01:52:08;7.30;;;5.60;;
56481;SDS011;42384;45.186;19.958;2023-09-07T01:54:34;10.52;;;5.18;;
56481;SDS011;42384;45.186;19.958;2023-09-07T01:57:00;7.63;;;4.75;;
56481;SDS011;42384;45.186;19.958;2023-09-07T01:59:27;8.10;;;5.55;;
56481;SDS011;42384;45.186;19.958;2023-09-07T02:01:53;6.53;;;4.97;;
56481;SDS011;42384;45.186;19.958;2023-09-07T02:04:20;7.57;;;5.47;;
56481;SDS011;42384;45.186;19.958;2023-09-07T02:06:46;10.02;;;5.72;;
56481;SDS011;42384;45.186;19.958;2023-09-07T02:09:12;6.32;;;4.80;;
56481;SDS011;42384;45.186;19.958;2023-09-07T02:11:38;9.10;;;5.60;;
56481;SDS011;42384;45.186;19.958;2023-09-07T02:14:06;10.18;;;5.63;;
56481;SDS011;42384;45.186;19.958;2023-09-07T02:16:32;7.38;;;5.65;;
56481;SDS011;42384;45.186;19.958;2023-09-07T02:19:01;8.20;;;5.82;;
56481;SDS011;42384;45.186;19.958;2023-09-07T02:21:28;7.88;;;5.22;;
56481;SDS011;42384;45.186;19.958;2023-09-07T02:23:55;8.65;;;5.80;;
56481;SDS011;42384;45.186;19.958;2023-09-07T02:26:21;6.68;;;5.68;;
56481;SDS011;42384;45.186;19.958;2023-09-07T02:28:47;7.13;;;5.55;;
56481;SDS011;42384;45.186;19.958;2023-09-07T02:31:13;8.63;;;4.72;;
56481;SDS011;42384;45.186;19.958;2023-09-07T02:33:40;7.00;;;5.05;;
56481;SDS011;42384;45.186;19.958;2023-09-07T02:36:06;8.80;;;6.03;;
56481;SDS011;42384;45.186;19.958;2023-09-07T02:38:32;6.68;;;5.07;;
56481;SDS011;42384;45.186;19.958;2023-09-07T02:40:59;7.88;;;5.43;;
56481;SDS011;42384;45.186;19.958;2023-09-07T02:43:26;10.55;;;5.72;;
56481;SDS011;42384;45.186;19.958;2023-09-07T02:45:52;8.88;;;5.28;;
56481;SDS011;42384;45.186;19.958;2023-09-07T02:48:18;9.70;;;5.30;;
56481;SDS011;42384;45.186;19.958;2023-09-07T02:50:45;10.40;;;6.43;;
56481;SDS011;42384;45.186;19.958;2023-09-07T02:53:14;8.40;;;5.80;;
56481;SDS011;42384;45.186;19.958;2023-09-07T02:55:40;10.45;;;5.82;;
56481;SDS011;42384;45.186;19.958;2023-09-07T02:58:06;8.20;;;5.70;;
56481;SDS011;42384;45.186;19.958;2023-09-07T03:00:32;7.28;;;5.85;;
56481;SDS011;42384;45.186;19.958;2023-09-07T03:03:00;7.13;;;5.35;;
56481;SDS011;42384;45.186;19.958;2023-09-07T03:05:29;8.95;;;6.65;;
56481;SDS011;42384;45.186;19.958;2023-09-07T03:07:55;9.05;;;5.90;;
56481;SDS011;42384;45.186;19.958;2023-09-07T03:10:21;11.00;;;7.10;;
56481;SDS011;42384;45.186;19.958;2023-09-07T03:12:48;9.57;;;6.57;;
56481;SDS011;42384;45.186;19.958;2023-09-07T03:15:15;9.05;;;6.82;;
56481;SDS011;42384;45.186;19.958;2023-09-07T03:17:41;10.45;;;6.60;;
56481;SDS011;42384;45.186;19.958;2023-09-07T03:20:08;9.90;;;7.50;;
56481;SDS011;42384;45.186;19.958;2023-09-07T03:22:44;12.00;;;7.72;;
56481;SDS011;42384;45.186;19.958;2023-09-07T03:25:10;11.10;;;8.52;;
56481;SDS011;42384;45.186;19.958;2023-09-07T03:27:37;13.40;;;8.00;;
56481;SDS011;42384;45.186;19.958;2023-09-07T03:30:03;14.07;;;7.97;;
56481;SDS011;42384;45.186;19.958;2023-09-07T03:32:31;10.98;;;7.10;;
56481;SDS011;42384;45.186;19.958;2023-09-07T03:34:59;12.15;;;7.80;;
56481;SDS011;42384;45.186;19.958;2023-09-07T03:37:26;22.95;;;7.95;;
56481;SDS011;42384;45.186;19.958;2023-09-07T03:39:53;12.73;;;7.82;;
56481;SDS011;42384;45.186;19.958;2023-09-07T03:42:20;11.98;;;8.18;;
56481;SDS011;42384;45.186;19.958;2023-09-07T03:44:46;11.40;;;8.05;;
56481;SDS011;42384;45.186;19.958;2023-09-07T03:47:13;12.82;;;9.25;;
56481;SDS011;42384;45.186;19.958;2023-09-07T03:49:39;13.70;;;8.85;;
56481;SDS011;42384;45.186;19.958;2023-09-07T03:52:05;13.60;;;8.43;;
56481;SDS011;42384;45.186;19.958;2023-09-07T03:54:32;13.70;;;9.10;;
56481;SDS011;42384;45.186;19.958;2023-09-07T03:56:58;13.38;;;9.13;;
56481;SDS011;42384;45.186;19.958;2023-09-07T03:59:24;14.80;;;10.35;;
56481;SDS011;42384;45.186;19.958;2023-09-07T04:01:53;12.20;;;8.88;;
56481;SDS011;42384;45.186;19.958;2023-09-07T04:04:20;13.02;;;10.65;;
56481;SDS011;42384;45.186;19.958;2023-09-07T04:06:49;13.88;;;10.48;;
56481;SDS011;42384;45.186;19.958;2023-09-07T04:09:15;11.52;;;9.75;;
56481;SDS011;42384;45.186;19.958;2023-09-07T04:11:41;16.67;;;10.27;;
56481;SDS011;42384;45.186;19.958;2023-09-07T04:14:08;15.32;;;11.02;;
56481;SDS011;42384;45.186;19.958;2023-09-07T04:16:34;13.90;;;10.07;;
56481;SDS011;42384;45.186;19.958;2023-09-07T04:19:00;13.10;;;9.88;;
56481;SDS011;42384;45.186;19.958;2023-09-07T04:21:26;13.43;;;9.80;;
56481;SDS011;42384;45.186;19.958;2023-09-07T04:23:53;15.50;;;9.43;;
56481;SDS011;42384;45.186;19.958;2023-09-07T04:26:19;16.45;;;10.27;;
56481;SDS011;42384;45.186;19.958;2023-09-07T04:28:45;14.40;;;9.55;;
56481;SDS011;42384;45.186;19.958;2023-09-07T04:31:11;12.63;;;9.35;;
56481;SDS011;42384;45.186;19.958;2023-09-07T04:33:38;13.50;;;9.57;;
56481;SDS011;42384;45.186;19.958;2023-09-07T04:36:10;15.02;;;9.75;;
56481;SDS011;42384;45.186;19.958;2023-09-07T04:38:37;13.43;;;9.90;;
56481;SDS011;42384;45.186;19.958;2023-09-07T04:41:10;15.93;;;10.82;;
56481;SDS011;42384;45.186;19.958;2023-09-07T04:43:36;18.77;;;9.57;;
56481;SDS011;42384;45.186;19.958;2023-09-07T04:46:05;15.75;;;10.40;;
56481;SDS011;42384;45.186;19.958;2023-09-07T04:48:32;17.10;;;11.95;;
56481;SDS011;42384;45.186;19.958;2023-09-07T04:51:00;20.25;;;12.13;;
56481;SDS011;42384;45.186;19.958;2023-09-07T04:53:30;14.93;;;11.10;;
56481;SDS011;42384;45.186;19.958;2023-09-07T04:55:57;18.77;;;11.63;;
56481;SDS011;42384;45.186;19.958;2023-09-07T04:58:23;21.10;;;11.70;;
56481;SDS011;42384;45.186;19.958;2023-09-07T05:00:50;24.05;;;11.68;;
56481;SDS011;42384;45.186;19.958;2023-09-07T05:03:16;24.10;;;11.50;;
56481;SDS011;42384;45.186;19.958;2023-09-07T05:05:43;25.77;;;10.32;;
56481;SDS011;42384;45.186;19.958;2023-09-07T05:08:09;31.58;;;10.98;;
56481;SDS011;42384;45.186;19.958;2023-09-07T05:10:36;25.10;;;9.82;;
56481;SDS011;42384;45.186;19.958;2023-09-07T05:13:03;30.52;;;10.00;;
56481;SDS011;42384;45.186;19.958;2023-09-07T05:15:29;29.45;;;9.27;;
56481;SDS011;42384;45.186;19.958;2023-09-07T05:17:55;37.90;;;11.68;;
56481;SDS011;42384;45.186;19.958;2023-09-07T05:20:21;51.47;;;11.25;;
56481;SDS011;42384;45.186;19.958;2023-09-07T05:22:48;46.70;;;11.32;;
56481;SDS011;42384;45.186;19.958;2023-09-07T05:25:14;46.88;;;10.40;;
56481;SDS011;42384;45.186;19.958;2023-09-07T05:27:41;41.28;;;10.57;;
56481;SDS011;42384;45.186;19.958;2023-09-07T05:30:07;51.83;;;11.50;;
56481;SDS011;42384;45.186;19.958;2023-09-07T05:32:34;63.65;;;10.38;;
56481;SDS011;42384;45.186;19.958;2023-09-07T05:35:00;66.57;;;10.05;;
56481;SDS011;42384;45.186;19.958;2023-09-07T05:37:26;48.70;;;10.55;;
56481;SDS011;42384;45.186;19.958;2023-09-07T05:39:52;61.03;;;11.45;;
56481;SDS011;42384;45.186;19.958;2023-09-07T05:42:19;51.33;;;10.27;;
56481;SDS011;42384;45.186;19.958;2023-09-07T05:44:45;61.20;;;11.20;;
56481;SDS011;42384;45.186;19.958;2023-09-07T05:47:11;78.20;;;12.75;;
56481;SDS011;42384;45.186;19.958;2023-09-07T05:49:37;57.80;;;10.77;;
56481;SDS011;42384;45.186;19.958;2023-09-07T05:52:04;37.97;;;10.35;;
56481;SDS011;42384;45.186;19.958;2023-09-07T05:54:30;36.65;;;9.93;;
56481;SDS011;42384;45.186;19.958;2023-09-07T05:56:56;36.20;;;9.98;;
56481;SDS011;42384;45.186;19.958;2023-09-07T05:59:23;41.85;;;9.85;;
56481;SDS011;42384;45.186;19.958;2023-09-07T06:01:49;44.90;;;11.07;;
56481;SDS011;42384;45.186;19.958;2023-09-07T06:04:15;40.85;;;10.38;;
56481;SDS011;42384;45.186;19.958;2023-09-07T06:06:42;56.47;;;11.00;;
56481;SDS011;42384;45.186;19.958;2023-09-07T06:09:08;51.17;;;10.63;;
56481;SDS011;42384;45.186;19.958;2023-09-07T06:11:34;41.38;;;9.70;;
56481;SDS011;42384;45.186;19.958;2023-09-07T06:14:00;34.08;;;9.52;;
56481;SDS011;42384;45.186;19.958;2023-09-07T06:16:28;26.75;;;9.10;;
56481;SDS011;42384;45.186;19.958;2023-09-07T06:18:54;32.28;;;8.70;;
56481;SDS011;42384;45.186;19.958;2023-09-07T06:21:20;17.67;;;7.03;;
56481;SDS011;42384;45.186;19.958;2023-09-07T06:23:46;25.60;;;7.75;;
56481;SDS011;42384;45.186;19.958;2023-09-07T06:26:13;20.83;;;7.90;;
56481;SDS011;42384;45.186;19.958;2023-09-07T06:28:39;17.05;;;7.25;;
56481;SDS011;42384;45.186;19.958;2023-09-07T06:31:05;19.40;;;7.15;;
56481;SDS011;42384;45.186;19.958;2023-09-07T06:33:32;17.77;;;6.65;;
56481;SDS011;42384;45.186;19.958;2023-09-07T06:35:59;26.13;;;7.13;;
56481;SDS011;42384;45.186;19.958;2023-09-07T06:38:27;7.22;;;5.68;;
56481;SDS011;42384;45.186;19.958;2023-09-07T06:40:53;16.33;;;7.00;;
56481;SDS011;42384;45.186;19.958;2023-09-07T06:43:20;12.10;;;5.80;;
56481;SDS011;42384;45.186;19.958;2023-09-07T06:45:46;14.70;;;6.15;;
56481;SDS011;42384;45.186;19.958;2023-09-07T06:48:12;10.48;;;5.63;;
56481;SDS011;42384;45.186;19.958;2023-09-07T06:50:38;10.02;;;4.88;;
56481;SDS011;42384;45.186;19.958;2023-09-07T06:53:04;9.30;;;5.22;;
56481;SDS011;42384;45.186;19.958;2023-09-07T06:55:31;9.55;;;5.30;;
56481;SDS011;42384;45.186;19.958;2023-09-07T06:57:57;10.10;;;5.53;;
56481;SDS011;42384;45.186;19.958;2023-09-07T07:00:25;8.38;;;5.18;;
56481;SDS011;42384;45.186;19.958;2023-09-07T07:02:52;13.02;;;5.30;;
56481;SDS011;42384;45.186;19.958;2023-09-07T07:05:18;15.20;;;5.50;;
56481;SDS011;42384;45.186;19.958;2023-09-07T07:07:46;15.02;;;4.68;;
56481;SDS011;42384;45.186;19.958;2023-09-07T07:10:12;9.02;;;4.47;;
56481;SDS011;42384;45.186;19.958;2023-09-07T07:15:05;14.52;;;5.28;;
56481;SDS011;42384;45.186;19.958;2023-09-07T07:17:32;15.57;;;5.40;;
56481;SDS011;42384;45.186;19.958;2023-09-07T07:19:59;11.98;;;5.72;;
56481;SDS011;42384;45.186;19.958;2023-09-07T07:22:25;14.68;;;5.32;;
56481;SDS011;42384;45.186;19.958;2023-09-07T07:24:51;13.80;;;4.70;;
56481;SDS011;42384;45.186;19.958;2023-09-07T07:27:17;19.80;;;5.50;;
56481;SDS011;42384;45.186;19.958;2023-09-07T07:29:43;10.68;;;5.03;;
56481;SDS011;42384;45.186;19.958;2023-09-07T07:32:10;24.65;;;6.18;;
56481;SDS011;42384;45.186;19.958;2023-09-07T07:34:36;17.02;;;6.10;;
56481;SDS011;42384;45.186;19.958;2023-09-07T07:37:03;13.63;;;6.03;;
56481;SDS011;42384;45.186;19.958;2023-09-07T07:39:29;11.48;;;4.93;;
56481;SDS011;42384;45.186;19.958;2023-09-07T07:41:55;13.75;;;4.97;;
56481;SDS011;42384;45.186;19.958;2023-09-07T07:44:21;11.60;;;5.75;;
56481;SDS011;42384;45.186;19.958;2023-09-07T07:46:47;6.72;;;4.00;;
56481;SDS011;42384;45.186;19.958;2023-09-07T07:49:14;7.63;;;4.15;;
56481;SDS011;42384;45.186;19.958;2023-09-07T07:54:06;7.90;;;3.72;;
56481;SDS011;42384;45.186;19.958;2023-09-07T07:56:32;6.72;;;4.85;;
56481;SDS011;42384;45.186;19.958;2023-09-07T07:58:59;7.88;;;3.75;;
56481;SDS011;42384;45.186;19.958;2023-09-07T08:01:25;18.70;;;5.97;;
56481;SDS011;42384;45.186;19.958;2023-09-07T08:06:18;9.95;;;4.18;;
56481;SDS011;42384;45.186;19.958;2023-09-07T08:08:44;11.85;;;4.55;;
56481;SDS011;42384;45.186;19.958;2023-09-07T08:11:10;11.25;;;4.53;;
56481;SDS011;42384;45.186;19.958;2023-09-07T08:13:37;20.80;;;5.35;;
56481;SDS011;42384;45.186;19.958;2023-09-07T08:16:04;17.38;;;4.82;;
56481;SDS011;42384;45.186;19.958;2023-09-07T08:18:32;21.30;;;5.40;;
56481;SDS011;42384;45.186;19.958;2023-09-07T08:20:59;12.50;;;3.97;;
56481;SDS011;42384;45.186;19.958;2023-09-07T08:25:52;11.70;;;4.47;;
56481;SDS011;42384;45.186;19.958;2023-09-07T08:33:12;10.80;;;4.10;;
56481;SDS011;42384;45.186;19.958;2023-09-07T08:35:38;7.22;;;3.70;;
56481;SDS011;42384;45.186;19.958;2023-09-07T08:38:12;9.68;;;3.33;;
56481;SDS011;42384;45.186;19.958;2023-09-07T08:40:38;12.70;;;4.38;;
56481;SDS011;42384;45.186;19.958;2023-09-07T08:43:08;15.70;;;4.10;;
56481;SDS011;42384;45.186;19.958;2023-09-07T08:45:38;25.52;;;5.15;;
56481;SDS011;42384;45.186;19.958;2023-09-07T08:48:06;17.67;;;4.35;;
56481;SDS011;42384;45.186;19.958;2023-09-07T08:50:33;20.10;;;4.07;;
56481;SDS011;42384;45.186;19.958;2023-09-07T08:53:02;10.20;;;4.20;;
56481;SDS011;42384;45.186;19.958;2023-09-07T08:57:55;14.52;;;4.53;;
56481;SDS011;42384;45.186;19.958;2023-09-07T09:02:48;6.17;;;3.20;;
56481;SDS011;42384;45.186;19.958;2023-09-07T09:05:14;9.07;;;3.90;;
56481;SDS011;42384;45.186;19.958;2023-09-07T09:07:43;16.23;;;5.85;;
56481;SDS011;42384;45.186;19.958;2023-09-07T09:10:10;17.55;;;4.25;;
56481;SDS011;42384;45.186;19.958;2023-09-07T09:12:44;15.30;;;4.70;;
56481;SDS011;42384;45.186;19.958;2023-09-07T09:15:11;15.63;;;4.22;;
56481;SDS011;42384;45.186;19.958;2023-09-07T09:17:37;16.75;;;4.72;;
56481;SDS011;42384;45.186;19.958;2023-09-07T09:20:03;12.60;;;3.50;;
56481;SDS011;42384;45.186;19.958;2023-09-07T09:22:35;23.60;;;4.40;;
56481;SDS011;42384;45.186;19.958;2023-09-07T09:27:27;18.27;;;4.18;;
56481;SDS011;42384;45.186;19.958;2023-09-07T09:29:53;12.98;;;3.80;;
56481;SDS011;42384;45.186;19.958;2023-09-07T09:32:19;8.20;;;3.75;;
56481;SDS011;42384;45.186;19.958;2023-09-07T09:34:45;11.90;;;3.80;;
56481;SDS011;42384;45.186;19.958;2023-09-07T09:37:13;20.92;;;3.38;;
56481;SDS011;42384;45.186;19.958;2023-09-07T09:39:44;14.48;;;3.97;;
56481;SDS011;42384;45.186;19.958;2023-09-07T09:42:15;11.75;;;3.50;;
56481;SDS011;42384;45.186;19.958;2023-09-07T09:44:42;13.25;;;3.67;;
56481;SDS011;42384;45.186;19.958;2023-09-07T09:47:09;6.13;;;3.17;;
56481;SDS011;42384;45.186;19.958;2023-09-07T09:49:36;9.07;;;3.67;;
56481;SDS011;42384;45.186;19.958;2023-09-07T09:52:03;9.85;;;3.50;;
56481;SDS011;42384;45.186;19.958;2023-09-07T09:54:30;6.95;;;3.30;;
56481;SDS011;42384;45.186;19.958;2023-09-07T09:56:58;11.27;;;3.60;;
56481;SDS011;42384;45.186;19.958;2023-09-07T09:59:24;11.77;;;3.38;;
56481;SDS011;42384;45.186;19.958;2023-09-07T10:04:17;8.40;;;3.63;;
56481;SDS011;42384;45.186;19.958;2023-09-07T10:06:55;10.88;;;4.40;;
56481;SDS011;42384;45.186;19.958;2023-09-07T10:09:21;9.88;;;3.90;;
56481;SDS011;42384;45.186;19.958;2023-09-07T10:11:51;13.57;;;3.88;;
56481;SDS011;42384;45.186;19.958;2023-09-07T10:14:21;10.75;;;3.63;;
56481;SDS011;42384;45.186;19.958;2023-09-07T10:16:48;11.90;;;4.15;;
56481;SDS011;42384;45.186;19.958;2023-09-07T10:19:20;7.90;;;3.78;;
56481;SDS011;42384;45.186;19.958;2023-09-07T10:21:46;9.00;;;3.35;;
56481;SDS011;42384;45.186;19.958;2023-09-07T10:27:04;10.48;;;3.53;;
56481;SDS011;42384;45.186;19.958;2023-09-07T10:29:43;11.05;;;3.95;;
56481;SDS011;42384;45.186;19.958;2023-09-07T10:32:10;12.45;;;3.67;;
56481;SDS011;42384;45.186;19.958;2023-09-07T10:34:37;10.10;;;4.18;;
56481;SDS011;42384;45.186;19.958;2023-09-07T10:37:04;10.55;;;3.95;;
56481;SDS011;42384;45.186;19.958;2023-09-07T10:39:35;13.38;;;3.95;;
56481;SDS011;42384;45.186;19.958;2023-09-07T10:42:02;14.27;;;3.72;;
56481;SDS011;42384;45.186;19.958;2023-09-07T10:44:28;10.20;;;3.47;;
56481;SDS011;42384;45.186;19.958;2023-09-07T10:49:20;12.50;;;3.92;;
56481;SDS011;42384;45.186;19.958;2023-09-07T10:51:46;9.45;;;4.05;;
56481;SDS011;42384;45.186;19.958;2023-09-07T10:54:16;13.23;;;4.03;;
56481;SDS011;42384;45.186;19.958;2023-09-07T10:56:43;11.93;;;4.55;;
56481;SDS011;42384;45.186;19.958;2023-09-07T10:59:10;9.77;;;3.63;;
56481;SDS011;42384;45.186;19.958;2023-09-07T11:01:37;11.85;;;4.13;;
56481;SDS011;42384;45.186;19.958;2023-09-07T11:04:03;9.23;;;3.53;;
56481;SDS011;42384;45.186;19.958;2023-09-07T11:06:30;22.15;;;4.70;;
56481;SDS011;42384;45.186;19.958;2023-09-07T11:08:59;6.72;;;3.67;;
56481;SDS011;42384;45.186;19.958;2023-09-07T11:11:26;40.17;;;6.88;;
56481;SDS011;42384;45.186;19.958;2023-09-07T11:13:53;23.77;;;4.93;;
56481;SDS011;42384;45.186;19.958;2023-09-07T11:16:19;10.00;;;3.85;;
56481;SDS011;42384;45.186;19.958;2023-09-07T11:18:45;7.35;;;3.22;;
56481;SDS011;42384;45.186;19.958;2023-09-07T11:21:11;48.05;;;31.75;;
56481;SDS011;42384;45.186;19.958;2023-09-07T11:23:38;35.78;;;22.90;;
56481;SDS011;42384;45.186;19.958;2023-09-07T11:28:33;17.38;;;4.85;;
56481;SDS011;42384;45.186;19.958;2023-09-07T11:30:59;19.10;;;4.60;;
56481;SDS011;42384;45.186;19.958;2023-09-07T11:33:26;12.50;;;3.78;;
56481;SDS011;42384;45.186;19.958;2023-09-07T11:35:52;12.32;;;3.67;;
56481;SDS011;42384;45.186;19.958;2023-09-07T11:38:22;12.43;;;4.32;;
56481;SDS011;42384;45.186;19.958;2023-09-07T11:43:15;8.10;;;3.80;;
56481;SDS011;42384;45.186;19.958;2023-09-07T11:45:46;7.20;;;3.78;;
56481;SDS011;42384;45.186;19.958;2023-09-07T11:48:12;10.77;;;4.25;;
56481;SDS011;42384;45.186;19.958;2023-09-07T11:50:40;22.52;;;4.70;;
56481;SDS011;42384;45.186;19.958;2023-09-07T11:55:33;24.88;;;5.43;;
56481;SDS011;42384;45.186;19.958;2023-09-07T11:58:00;13.68;;;4.20;;
56481;SDS011;42384;45.186;19.958;2023-09-07T12:00:27;8.18;;;3.58;;
56481;SDS011;42384;45.186;19.958;2023-09-07T12:02:54;5.38;;;3.80;;
56481;SDS011;42384;45.186;19.958;2023-09-07T12:05:21;6.50;;;3.85;;
56481;SDS011;42384;45.186;19.958;2023-09-07T12:07:47;13.35;;;4.43;;
56481;SDS011;42384;45.186;19.958;2023-09-07T12:10:13;9.48;;;4.47;;
56481;SDS011;42384;45.186;19.958;2023-09-07T12:12:40;13.57;;;4.55;;
56481;SDS011;42384;45.186;19.958;2023-09-07T12:15:06;10.05;;;3.67;;
56481;SDS011;42384;45.186;19.958;2023-09-07T12:17:33;9.07;;;3.70;;
56481;SDS011;42384;45.186;19.958;2023-09-07T12:19:59;13.45;;;4.60;;
56481;SDS011;42384;45.186;19.958;2023-09-07T12:22:26;8.40;;;3.88;;
56481;SDS011;42384;45.186;19.958;2023-09-07T12:24:53;6.57;;;3.75;;
56481;SDS011;42384;45.186;19.958;2023-09-07T12:27:19;14.52;;;4.35;;
56481;SDS011;42384;45.186;19.958;2023-09-07T12:29:45;7.82;;;3.90;;
56481;SDS011;42384;45.186;19.958;2023-09-07T12:32:11;19.88;;;4.80;;
56481;SDS011;42384;45.186;19.958;2023-09-07T12:34:38;36.90;;;5.38;;
56481;SDS011;42384;45.186;19.958;2023-09-07T12:37:04;8.27;;;4.32;;
56481;SDS011;42384;45.186;19.958;2023-09-07T12:39:30;10.85;;;4.07;;
56481;SDS011;42384;45.186;19.958;2023-09-07T12:41:57;16.50;;;4.43;;
56481;SDS011;42384;45.186;19.958;2023-09-07T12:44:23;15.27;;;4.10;;
56481;SDS011;42384;45.186;19.958;2023-09-07T12:46:49;13.05;;;4.20;;
56481;SDS011;42384;45.186;19.958;2023-09-07T12:51:42;7.88;;;4.10;;
56481;SDS011;42384;45.186;19.958;2023-09-07T12:54:08;14.68;;;4.90;;
56481;SDS011;42384;45.186;19.958;2023-09-07T12:56:34;10.43;;;4.50;;
56481;SDS011;42384;45.186;19.958;2023-09-07T12:59:00;6.85;;;3.97;;
56481;SDS011;42384;45.186;19.958;2023-09-07T13:01:29;8.50;;;3.85;;
56481;SDS011;42384;45.186;19.958;2023-09-07T13:03:56;6.85;;;3.67;;
56481;SDS011;42384;45.186;19.958;2023-09-07T13:08:48;35.63;;;20.85;;
56481;SDS011;42384;45.186;19.958;2023-09-07T13:11:14;10.63;;;4.28;;
56481;SDS011;42384;45.186;19.958;2023-09-07T13:13:41;8.57;;;4.05;;
56481;SDS011;42384;45.186;19.958;2023-09-07T13:16:07;17.98;;;7.70;;
56481;SDS011;42384;45.186;19.958;2023-09-07T13:18:33;10.95;;;5.47;;
56481;SDS011;42384;45.186;19.958;2023-09-07T13:21:00;10.32;;;3.70;;
56481;SDS011;42384;45.186;19.958;2023-09-07T13:23:26;16.42;;;4.80;;
56481;SDS011;42384;45.186;19.958;2023-09-07T13:25:53;9.45;;;3.90;;
56481;SDS011;42384;45.186;19.958;2023-09-07T13:28:20;11.80;;;4.18;;
56481;SDS011;42384;45.186;19.958;2023-09-07T13:30:46;9.65;;;3.90;;
56481;SDS011;42384;45.186;19.958;2023-09-07T13:33:12;8.30;;;3.50;;
56481;SDS011;42384;45.186;19.958;2023-09-07T13:35:38;6.82;;;3.67;;
56481;SDS011;42384;45.186;19.958;2023-09-07T13:40:31;11.25;;;3.42;;
56481;SDS011;42384;45.186;19.958;2023-09-07T13:42:57;5.65;;;4.28;;
56481;SDS011;42384;45.186;19.958;2023-09-07T13:45:23;9.45;;;3.80;;
56481;SDS011;42384;45.186;19.958;2023-09-07T13:47:49;8.45;;;4.13;;
56481;SDS011;42384;45.186;19.958;2023-09-07T13:50:15;5.43;;;3.38;;
56481;SDS011;42384;45.186;19.958;2023-09-07T13:52:42;5.85;;;3.55;;
56481;SDS011;42384;45.186;19.958;2023-09-07T13:57:34;7.95;;;3.90;;
56481;SDS011;42384;45.186;19.958;2023-09-07T14:00:00;8.63;;;3.55;;
56481;SDS011;42384;45.186;19.958;2023-09-07T14:04:52;7.20;;;3.70;;
56481;SDS011;42384;45.186;19.958;2023-09-07T14:07:19;11.50;;;3.70;;
56481;SDS011;42384;45.186;19.958;2023-09-07T14:09:46;11.75;;;4.10;;
56481;SDS011;42384;45.186;19.958;2023-09-07T14:12:12;9.00;;;4.35;;
56481;SDS011;42384;45.186;19.958;2023-09-07T14:14:38;7.20;;;3.92;;
56481;SDS011;42384;45.186;19.958;2023-09-07T14:17:04;11.18;;;4.53;;
56481;SDS011;42384;45.186;19.958;2023-09-07T14:19:31;10.10;;;4.85;;
56481;SDS011;42384;45.186;19.958;2023-09-07T14:21:57;11.27;;;4.28;;
56481;SDS011;42384;45.186;19.958;2023-09-07T14:26:50;6.80;;;3.65;;
56481;SDS011;42384;45.186;19.958;2023-09-07T14:29:16;7.93;;;3.88;;
56481;SDS011;42384;45.186;19.958;2023-09-07T14:31:42;11.07;;;4.00;;
56481;SDS011;42384;45.186;19.958;2023-09-07T14:34:09;6.18;;;3.78;;
56481;SDS011;42384;45.186;19.958;2023-09-07T14:36:36;7.07;;;3.60;;
56481;SDS011;42384;45.186;19.958;2023-09-07T14:39:02;7.00;;;3.95;;
56481;SDS011;42384;45.186;19.958;2023-09-07T14:41:29;5.97;;;3.78;;
56481;SDS011;42384;45.186;19.958;2023-09-07T14:43:55;7.05;;;3.95;;
56481;SDS011;42384;45.186;19.958;2023-09-07T14:51:15;7.63;;;3.75;;
56481;SDS011;42384;45.186;19.958;2023-09-07T14:53:42;6.75;;;3.75;;
56481;SDS011;42384;45.186;19.958;2023-09-07T14:56:08;11.57;;;3.70;;
56481;SDS011;42384;45.186;19.958;2023-09-07T14:58:35;11.65;;;4.00;;
56481;SDS011;42384;45.186;19.958;2023-09-07T15:01:01;16.75;;;4.30;;
56481;SDS011;42384;45.186;19.958;2023-09-07T15:03:28;9.02;;;3.95;;
56481;SDS011;42384;45.186;19.958;2023-09-07T15:05:55;9.23;;;3.78;;
56481;SDS011;42384;45.186;19.958;2023-09-07T15:08:21;12.13;;;4.50;;
56481;SDS011;42384;45.186;19.958;2023-09-07T15:10:47;6.15;;;3.95;;
56481;SDS011;42384;45.186;19.958;2023-09-07T15:13:13;5.00;;;3.70;;
56481;SDS011;42384;45.186;19.958;2023-09-07T15:15:39;14.88;;;4.70;;
56481;SDS011;42384;45.186;19.958;2023-09-07T15:18:06;11.65;;;4.40;;
56481;SDS011;42384;45.186;19.958;2023-09-07T15:20:32;9.52;;;4.28;;
56481;SDS011;42384;45.186;19.958;2023-09-07T15:22:58;12.90;;;4.38;;